createdAt,value
2018-06-22T00:02:15.131Z,97580.60
2018-06-22T00:07:09.728Z,97574.04
2018-06-22T00:12:04.334Z,97585.67
2018-06-22T00:16:58.914Z,97590.66
2018-06-22T00:21:53.842Z,97588.20
2018-06-22T00:31:45.246Z,97595.61
2018-06-22T00:36:39.823Z,97595.03
2018-06-22T00:41:34.435Z,97602.77
2018-06-22T00:46:29.068Z,97609.55
2018-06-22T00:51:23.666Z,97621.75
2018-06-22T00:56:18.262Z,97624.77
2018-06-22T01:01:12.869Z,97629.87
2018-06-22T01:06:07.773Z,97632.67
2018-06-22T01:11:02.333Z,97645.23
2018-06-22T01:15:56.936Z,97655.95
2018-06-22T01:20:51.518Z,97659.55
2018-06-22T01:25:46.183Z,97662.74
2018-06-22T01:30:40.802Z,97661.27
2018-06-22T01:35:35.438Z,97671.48
2018-06-22T01:40:30.038Z,97671.48
2018-06-22T01:45:24.630Z,97667.70
2018-06-22T01:50:19.244Z,97669.71
2018-06-22T01:55:13.886Z,97675.66
2018-06-22T02:00:08.523Z,97689.22
2018-06-22T02:05:03.132Z,97682.77
2018-06-22T02:09:57.759Z,97686.88
2018-06-22T02:14:54.156Z,97669.17
2018-06-22T02:19:48.778Z,97673.12
2018-06-22T02:24:43.398Z,97684.39
2018-06-22T02:29:38.015Z,97679.17
2018-06-22T02:34:32.612Z,97676.04
2018-06-22T02:39:27.220Z,97685.31
2018-06-22T02:44:21.830Z,97692.72
2018-06-22T02:49:16.508Z,97677.15
2018-06-22T02:54:11.115Z,97684.13
2018-06-22T02:59:05.756Z,97684.83
2018-06-22T03:04:00.083Z,97695.64
2018-06-22T03:08:54.705Z,97690.36
2018-06-22T03:13:49.357Z,97692.91
2018-06-22T03:18:44.182Z,97699.23
2018-06-22T03:23:38.827Z,97693.36
2018-06-22T03:28:33.414Z,97703.17
2018-06-22T03:33:28.015Z,97706.90
2018-06-22T03:38:22.631Z,97705.33
2018-06-22T03:43:17.320Z,97701.44
2018-06-22T03:48:11.906Z,97698.86
2018-06-22T03:53:06.581Z,97706.30
2018-06-22T03:58:01.303Z,97698.23
2018-06-22T04:02:55.934Z,97706.61
2018-06-22T04:07:50.505Z,97710.79
2018-06-22T04:12:45.099Z,97719.38
2018-06-22T04:17:48.562Z,97719.77
2018-06-22T04:22:43.242Z,97724.64
2018-06-22T04:27:37.834Z,97729.61
2018-06-22T04:32:32.451Z,97724.48
2018-06-22T04:37:27.022Z,97729.83
2018-06-22T04:42:21.616Z,97733.00
2018-06-22T04:47:16.251Z,97727.84
2018-06-22T04:52:10.864Z,97717.77
2018-06-22T04:57:05.500Z,97724.08
2018-06-22T05:02:00.183Z,97720.28
2018-06-22T05:06:54.854Z,97725.05
2018-06-22T05:11:49.468Z,97731.75
2018-06-22T05:16:44.103Z,97734.20
2018-06-22T05:21:38.826Z,97736.50
2018-06-22T05:26:33.538Z,97737.45
2018-06-22T05:31:28.156Z,97751.16
2018-06-22T05:36:22.827Z,97755.55
2018-06-22T05:41:17.560Z,97750.92
2018-06-22T05:46:12.231Z,97748.06
2018-06-22T05:51:06.992Z,97741.52
2018-06-22T05:56:01.578Z,97743.41
2018-06-22T06:00:56.266Z,97755.11
2018-06-22T06:05:51.008Z,97757.92
2018-06-22T06:10:45.689Z,97751.59
2018-06-22T06:15:40.359Z,97757.22
2018-06-22T06:20:35.125Z,97762.85
2018-06-22T06:25:29.778Z,97761.90
2018-06-22T06:30:24.436Z,97753.70
2018-06-22T06:35:19.140Z,97751.98
2018-06-22T06:40:13.787Z,97747.46
2018-06-22T06:45:08.446Z,97755.88
2018-06-22T06:50:02.777Z,97758.28
2018-06-22T06:54:57.475Z,97756.33
2018-06-22T06:59:52.189Z,97746.66
2018-06-22T07:04:46.895Z,97752.67
2018-06-22T07:09:41.755Z,97760.74
2018-06-22T07:14:36.507Z,97754.81
2018-06-22T07:19:31.168Z,97759.48
2018-06-22T07:24:25.894Z,97762.50
2018-06-22T07:29:20.487Z,97761.38
2018-06-22T07:34:15.130Z,97766.89
2018-06-22T07:39:11.619Z,97773.20
2018-06-22T07:44:06.325Z,97775.82
2018-06-22T07:49:01.117Z,97776.24
2018-06-22T07:53:55.405Z,97772.78
2018-06-22T07:58:50.041Z,97774.38
2018-06-22T08:03:44.682Z,97788.54
2018-06-22T08:08:39.309Z,97789.97
2018-06-22T08:13:33.883Z,97787.57
2018-06-22T08:18:28.490Z,97788.66
2018-06-22T08:23:23.120Z,97781.30
2018-06-22T08:28:17.784Z,97793.56
2018-06-22T08:33:12.443Z,97777.63
2018-06-22T08:38:07.296Z,97782.63
2018-06-22T08:43:01.931Z,97781.48
2018-06-22T08:47:59.479Z,97773.00
2018-06-22T08:52:54.111Z,97773.45
2018-06-22T08:57:48.798Z,97771.88
2018-06-22T09:02:43.054Z,97777.31
2018-06-22T09:07:37.697Z,97782.94
2018-06-22T09:12:32.030Z,97787.07
2018-06-22T09:17:26.658Z,97789.68
2018-06-22T09:22:21.278Z,97792.28
2018-06-22T09:27:15.888Z,97804.38
2018-06-22T09:32:10.579Z,97797.75
2018-06-22T09:37:05.279Z,97787.72
2018-06-22T09:41:59.928Z,97789.34
2018-06-22T09:46:54.943Z,97788.39
2018-06-22T09:51:49.583Z,97788.22
2018-06-22T09:56:44.259Z,97794.95
2018-06-22T10:01:38.936Z,97784.00
2018-06-22T10:06:33.555Z,97777.33
2018-06-22T10:11:28.251Z,97777.14
2018-06-22T10:16:22.934Z,97767.10
2018-06-22T10:21:17.530Z,97765.31
2018-06-22T10:26:12.187Z,97761.33
2018-06-22T10:31:06.741Z,97756.20
2018-06-22T10:36:02.219Z,97752.37
2018-06-22T10:40:56.967Z,97748.69
2018-06-22T10:45:51.662Z,97757.22
2018-06-22T10:50:46.322Z,97754.02
2018-06-22T10:55:40.997Z,97751.51
2018-06-22T11:00:35.679Z,97751.36
2018-06-22T11:05:30.343Z,97741.23
2018-06-22T11:10:24.990Z,97739.61
2018-06-22T11:15:19.651Z,97737.52
2018-06-22T11:20:14.375Z,97722.23
2018-06-22T11:25:09.142Z,97720.59
2018-06-22T11:30:03.907Z,97724.98
2018-06-22T11:34:59.262Z,97725.17
2018-06-22T11:39:54.178Z,97722.02
2018-06-22T11:44:48.866Z,97709.80
2018-06-22T11:49:43.498Z,97703.67
2018-06-22T11:54:38.198Z,97690.68
2018-06-22T11:59:32.796Z,97689.20
2018-06-22T12:04:27.480Z,97679.41
2018-06-22T12:09:22.137Z,97679.46
2018-06-22T12:14:16.805Z,97676.37
2018-06-22T12:19:11.514Z,97674.16
2018-06-22T12:24:06.142Z,97662.41
2018-06-22T12:29:01.270Z,97664.73
2018-06-22T12:33:55.963Z,97660.06
2018-06-22T12:38:50.622Z,97661.44
2018-06-22T12:43:45.363Z,97657.88
2018-06-22T12:48:40.046Z,97653.90
2018-06-22T12:53:34.701Z,97657.05
2018-06-22T12:58:29.351Z,97650.62
2018-06-22T13:03:24.028Z,97657.77
2018-06-22T13:08:18.699Z,97656.20
2018-06-22T13:13:12.990Z,97658.42
2018-06-22T13:18:07.642Z,97659.30
2018-06-22T13:23:02.318Z,97665.93
2018-06-22T13:27:56.694Z,97664.09
2018-06-22T13:32:51.334Z,97661.44
2018-06-22T13:37:45.971Z,97666.47
2018-06-22T13:42:40.630Z,97665.20
2018-06-22T13:47:35.265Z,97663.86
2018-06-22T13:52:29.949Z,97671.36
2018-06-22T13:57:24.309Z,97668.03
2018-06-22T14:02:18.965Z,97662.81
2018-06-22T14:07:13.603Z,97669.31
2018-06-22T14:12:08.310Z,97665.48
2018-06-22T14:17:02.942Z,97663.17
2018-06-22T14:21:57.527Z,97663.36
2018-06-22T14:26:52.152Z,97668.34
2018-06-22T14:31:46.787Z,97669.35
2018-06-22T14:36:41.487Z,97667.38
2018-06-22T14:41:36.170Z,97664.33
2018-06-22T14:46:30.908Z,97669.34
2018-06-22T14:51:25.568Z,97674.84
2018-06-22T14:56:25.310Z,97678.18
2018-06-22T15:01:24.968Z,97679.02
2018-06-22T15:06:24.778Z,97684.59
2018-06-22T15:11:19.465Z,97689.42
2018-06-22T15:16:14.076Z,97688.30
2018-06-22T15:21:08.738Z,97682.06
2018-06-22T15:26:04.506Z,97687.31
2018-06-22T15:30:58.813Z,97683.82
2018-06-22T15:35:58.508Z,97686.17
2018-06-22T15:40:58.351Z,97692.20
2018-06-22T15:45:58.110Z,97693.19
2018-06-22T15:50:57.987Z,97699.06
2018-06-22T15:55:56.731Z,97700.89
2018-06-22T16:00:51.470Z,97694.56
2018-06-22T16:05:46.054Z,97697.86
2018-06-22T16:10:40.775Z,97705.23
2018-06-22T16:15:40.437Z,97708.02
2018-06-22T16:20:40.112Z,97707.64
2018-06-22T16:25:39.702Z,97713.73
2018-06-22T16:30:34.408Z,97717.62
2018-06-22T16:35:29.193Z,97725.09
2018-06-22T16:40:23.987Z,97724.23
2018-06-22T16:45:18.723Z,97732.12
2018-06-22T16:50:13.000Z,97718.02
2018-06-22T16:55:07.706Z,97723.67
2018-06-22T17:00:02.411Z,97723.57
2018-06-22T17:04:57.079Z,97732.59
2018-06-22T17:09:56.709Z,97729.22
2018-06-22T17:14:56.681Z,97734.86
2018-06-22T17:19:51.302Z,97737.93
2018-06-22T17:24:45.938Z,97735.62
2018-06-22T17:29:40.639Z,97743.03
2018-06-22T17:34:35.371Z,97744.41
2018-06-22T17:39:29.944Z,97748.52
2018-06-22T17:44:24.605Z,97759.23
2018-06-22T17:49:19.254Z,97755.17
2018-06-22T17:54:13.919Z,97764.38
2018-06-22T17:59:13.809Z,97758.48
2018-06-22T18:04:13.643Z,97762.84
2018-06-22T18:09:10.161Z,97771.48
2018-06-22T18:14:05.051Z,97770.52
2018-06-22T18:18:59.666Z,97776.73
2018-06-22T18:23:54.356Z,97779.48
2018-06-22T18:28:49.284Z,97777.97
2018-06-22T18:33:43.944Z,97788.98
2018-06-22T18:38:38.639Z,97791.95
2018-06-22T18:43:38.323Z,97781.47
2018-06-22T18:48:33.054Z,97784.50
2018-06-22T18:53:32.762Z,97798.52
2018-06-22T18:58:32.517Z,97800.19
2018-06-22T19:03:32.268Z,97802.28
2018-06-22T19:08:27.025Z,97807.11
2018-06-22T19:13:21.682Z,97818.75
2018-06-22T19:18:16.381Z,97822.75
2018-06-22T19:23:11.055Z,97831.42
2018-06-22T19:28:05.998Z,97830.24
2018-06-22T19:33:00.652Z,97837.20
2018-06-22T19:37:55.422Z,97843.52
2018-06-22T19:42:50.196Z,97846.22
2018-06-22T19:47:50.044Z,97855.62
2018-06-22T19:52:49.823Z,97860.00
2018-06-22T19:57:44.515Z,97868.45
2018-06-22T20:02:39.117Z,97865.97
2018-06-22T20:07:33.823Z,97874.94
2018-06-22T20:12:28.527Z,97885.63
2018-06-22T20:17:23.237Z,97886.44
2018-06-22T20:22:18.596Z,97891.67
2018-06-22T20:27:13.635Z,97896.33
2018-06-22T20:32:09.734Z,97894.97
2018-06-22T20:39:13.919Z,97899.55
2018-06-22T20:46:19.928Z,97900.27
2018-06-22T20:51:14.668Z,97909.02
2018-06-22T20:56:09.346Z,97918.42
2018-06-22T21:01:05.363Z,97923.27
2018-06-22T21:06:00.088Z,97923.98
2018-06-22T21:10:54.819Z,97915.34
2018-06-22T21:15:49.498Z,97920.53
2018-06-22T21:20:49.296Z,97928.91
2018-06-22T21:25:43.976Z,97924.76
2018-06-22T21:30:43.806Z,97933.30
2018-06-22T21:35:43.531Z,97923.77
2018-06-22T21:40:38.184Z,97929.52
2018-06-22T21:45:32.961Z,97925.86
2018-06-22T21:50:27.671Z,97933.25
2018-06-22T21:55:22.275Z,97930.51
2018-06-22T22:00:27.142Z,97920.34
2018-06-22T22:05:21.795Z,97930.02
2018-06-22T22:10:19.410Z,97941.30
2018-06-22T22:15:14.031Z,97932.77
2018-06-22T22:20:08.760Z,97946.19
2018-06-22T22:25:03.377Z,97941.09
2018-06-22T22:29:58.090Z,97934.09
2018-06-22T22:34:52.901Z,97942.34
2018-06-22T22:39:47.583Z,97931.53
2018-06-22T22:44:42.277Z,97931.63
2018-06-22T22:49:36.926Z,97932.72
2018-06-22T22:54:31.742Z,97928.00
2018-06-22T22:59:26.399Z,97924.56
2018-06-22T23:04:21.066Z,97914.64
2018-06-22T23:09:15.765Z,97914.80
2018-06-22T23:14:10.502Z,97919.79
2018-06-22T23:19:05.179Z,97920.70
2018-06-22T23:23:59.458Z,97929.28
2018-06-22T23:28:54.099Z,97926.95
2018-06-22T23:33:48.726Z,97922.17
2018-06-22T23:38:43.354Z,97920.50
2018-06-22T23:43:38.084Z,97912.37
2018-06-22T23:48:32.714Z,97914.27
2018-06-22T23:53:27.385Z,97903.61
2018-06-22T23:58:21.708Z,97897.40
